EWG4TW EDDK-LEIB
Flight info
| Callsign | EWG4TW |
|---|---|
| Flight time | N/A |
| Altitude | 37000 |
| Route | NVO Y868 NAVAK Z283 SOPOK DCT ROUSY DCT GTQ DCT POGOL DCT LASAT DCT MOROK DCT GILIR DCT GEVEA DCT INCUS DCT BALSI DCT RETNO DCT TUPOX DCT MTG DCT DIVKO DCT VATIR/N0418F310 DCT PIVUS DCT SULID DCT DIMIB DCT POS |
| Aircraft | A320/M-SDE2E3FGIJ1RWXY/L |
Departure
| Time | N/A |
|---|---|
| Airport | Cologne Bonn Airport (EDDK) |
Arrival
| Time | 2026-05-01 13:16 |
|---|---|
| Airport | Ibiza Airport (LEIB) |
| Time | Latitude | Longitude | Altitude | Speed | Heading |
|---|---|---|---|---|---|
| 2026-05-01 12:24 | 42.45739 | 4.32659 | 37278 ft | 420 kts | 211° |
| 2026-05-01 12:24 | 42.40603 | 4.28844 | 37276 ft | 420 kts | 211° |
| 2026-05-01 12:25 | 42.32928 | 4.23157 | 37273 ft | 420 kts | 211° |
| 2026-05-01 12:26 | 42.27784 | 4.19340 | 37270 ft | 420 kts | 211° |
| 2026-05-01 12:26 | 42.20095 | 4.13680 | 37275 ft | 420 kts | 210° |
| 2026-05-01 12:27 | 42.12421 | 4.08031 | 37274 ft | 420 kts | 211° |
| 2026-05-01 12:28 | 42.04723 | 4.02379 | 37279 ft | 419 kts | 211° |
| 2026-05-01 12:29 | 41.97021 | 3.96753 | 37274 ft | 419 kts | 211° |
| 2026-05-01 12:29 | 41.89347 | 3.91216 | 37265 ft | 419 kts | 209° |
| 2026-05-01 12:30 | 41.81514 | 3.86018 | 37270 ft | 418 kts | 208° |
| 2026-05-01 12:31 | 41.76298 | 3.82564 | 37267 ft | 417 kts | 208° |
| 2026-05-01 12:31 | 41.71134 | 3.79088 | 37263 ft | 417 kts | 208° |
| 2026-05-01 12:32 | 41.65952 | 3.75613 | 37268 ft | 416 kts | 208° |
| 2026-05-01 12:32 | 41.58187 | 3.70448 | 37266 ft | 415 kts | 208° |
| 2026-05-01 12:33 | 41.53042 | 3.67018 | 37262 ft | 415 kts | 208° |
| 2026-05-01 12:33 | 41.47870 | 3.63577 | 37257 ft | 415 kts | 208° |
| 2026-05-01 12:34 | 41.42696 | 3.60142 | 37251 ft | 414 kts | 208° |
| 2026-05-01 12:34 | 41.37529 | 3.56721 | 37247 ft | 414 kts | 208° |
| 2026-05-01 12:35 | 41.32402 | 3.53329 | 37255 ft | 414 kts | 208° |
| 2026-05-01 12:35 | 41.27237 | 3.49926 | 37244 ft | 414 kts | 208° |
| 2026-05-01 12:36 | 41.22073 | 3.46529 | 37238 ft | 414 kts | 208° |
| 2026-05-01 12:36 | 41.16756 | 3.43703 | 37234 ft | 417 kts | 194° |
| 2026-05-01 12:37 | 41.11058 | 3.42191 | 37226 ft | 417 kts | 193° |
| 2026-05-01 12:37 | 41.05344 | 3.40687 | 37218 ft | 418 kts | 193° |
| 2026-05-01 12:38 | 40.99675 | 3.39192 | 37222 ft | 418 kts | 193° |
| 2026-05-01 12:38 | 40.93965 | 3.37677 | 37219 ft | 417 kts | 193° |
| 2026-05-01 12:39 | 40.88255 | 3.36175 | 37226 ft | 418 kts | 193° |
| 2026-05-01 12:39 | 40.82561 | 3.34689 | 37220 ft | 419 kts | 193° |
| 2026-05-01 12:40 | 40.76834 | 3.33193 | 37227 ft | 419 kts | 193° |
| 2026-05-01 12:40 | 40.71107 | 3.31700 | 37232 ft | 419 kts | 193° |
| 2026-05-01 12:41 | 40.65417 | 3.30217 | 37223 ft | 419 kts | 193° |
| 2026-05-01 12:41 | 40.59682 | 3.28715 | 37225 ft | 419 kts | 193° |
| 2026-05-01 12:42 | 40.53986 | 3.27233 | 37225 ft | 419 kts | 193° |
| 2026-05-01 12:42 | 40.48257 | 3.25742 | 37225 ft | 419 kts | 193° |
| 2026-05-01 12:43 | 40.42527 | 3.24261 | 37212 ft | 419 kts | 193° |
| 2026-05-01 12:43 | 40.36825 | 3.22788 | 37210 ft | 419 kts | 193° |
| 2026-05-01 12:44 | 40.31086 | 3.21317 | 37212 ft | 420 kts | 193° |
| 2026-05-01 12:45 | 40.19610 | 3.18348 | 37205 ft | 420 kts | 193° |
| 2026-05-01 12:45 | 40.13901 | 3.16878 | 37206 ft | 421 kts | 193° |
| 2026-05-01 12:46 | 40.08145 | 3.15409 | 37208 ft | 421 kts | 193° |
| 2026-05-01 12:46 | 40.02397 | 3.13934 | 37205 ft | 421 kts | 193° |
| 2026-05-01 12:47 | 39.96646 | 3.12459 | 37208 ft | 421 kts | 193° |
| 2026-05-01 12:47 | 39.91080 | 3.10222 | 37207 ft | 418 kts | 208° |
| 2026-05-01 12:48 | 39.86038 | 3.06552 | 37205 ft | 417 kts | 210° |
| 2026-05-01 12:48 | 39.80965 | 3.02870 | 37204 ft | 417 kts | 210° |
| 2026-05-01 12:49 | 39.75883 | 2.99193 | 37200 ft | 417 kts | 210° |
| 2026-05-01 12:49 | 39.70809 | 2.95518 | 37200 ft | 417 kts | 210° |
| 2026-05-01 12:50 | 39.65760 | 2.91863 | 37203 ft | 417 kts | 210° |
| 2026-05-01 12:50 | 39.60682 | 2.88203 | 37193 ft | 417 kts | 210° |
| 2026-05-01 12:51 | 39.55600 | 2.84540 | 37191 ft | 417 kts | 210° |
| 2026-05-01 12:52 | 39.48021 | 2.79072 | 37125 ft | 418 kts | 210° |
| 2026-05-01 12:52 | 39.43196 | 2.74938 | 36105 ft | 413 kts | 223° |
| 2026-05-01 12:52 | 39.41240 | 2.72231 | 35592 ft | 409 kts | 231° |
| 2026-05-01 12:53 | 39.37684 | 2.66530 | 34576 ft | 404 kts | 231° |
| 2026-05-01 12:53 | 39.35904 | 2.63708 | 34034 ft | 403 kts | 230° |
| 2026-05-01 12:53 | 39.34155 | 2.60948 | 33508 ft | 400 kts | 230° |
| 2026-05-01 12:54 | 39.32401 | 2.58181 | 33001 ft | 396 kts | 231° |
| 2026-05-01 12:54 | 39.28948 | 2.52725 | 32020 ft | 390 kts | 231° |
| 2026-05-01 12:54 | 39.27235 | 2.50016 | 31530 ft | 387 kts | 231° |
| 2026-05-01 12:55 | 39.23845 | 2.44663 | 30578 ft | 382 kts | 231° |
| 2026-05-01 12:55 | 39.22161 | 2.42013 | 30097 ft | 379 kts | 231° |
| 2026-05-01 12:55 | 39.20499 | 2.39396 | 29619 ft | 376 kts | 231° |
| 2026-05-01 12:56 | 39.18872 | 2.36838 | 29189 ft | 371 kts | 231° |
| 2026-05-01 12:56 | 39.17245 | 2.34280 | 28754 ft | 367 kts | 231° |
| 2026-05-01 12:56 | 39.15635 | 2.31751 | 28326 ft | 362 kts | 231° |
| 2026-05-01 12:56 | 39.14560 | 2.30061 | 28050 ft | 359 kts | 231° |
| 2026-05-01 12:57 | 39.13001 | 2.27614 | 27636 ft | 356 kts | 230° |
| 2026-05-01 12:57 | 39.09882 | 2.22735 | 26799 ft | 349 kts | 230° |
| 2026-05-01 12:57 | 39.08339 | 2.20322 | 26375 ft | 346 kts | 230° |
| 2026-05-01 12:58 | 39.06816 | 2.17936 | 25953 ft | 344 kts | 230° |
| 2026-05-01 12:58 | 39.05304 | 2.15563 | 25519 ft | 342 kts | 230° |
| 2026-05-01 12:58 | 39.03795 | 2.13200 | 25086 ft | 341 kts | 230° |
| 2026-05-01 12:59 | 39.00783 | 2.08505 | 24198 ft | 339 kts | 230° |
| 2026-05-01 12:59 | 38.99286 | 2.06165 | 23748 ft | 338 kts | 230° |
| 2026-05-01 12:59 | 38.96318 | 2.01537 | 22809 ft | 335 kts | 230° |
| 2026-05-01 13:00 | 38.93366 | 1.96946 | 21948 ft | 331 kts | 229° |
| 2026-05-01 13:00 | 38.91912 | 1.94649 | 21513 ft | 330 kts | 233° |
| 2026-05-01 13:01 | 38.89998 | 1.89298 | 20639 ft | 334 kts | 254° |
| 2026-05-01 13:01 | 38.89416 | 1.86433 | 20137 ft | 337 kts | 253° |
| 2026-05-01 13:01 | 38.88214 | 1.80553 | 19122 ft | 342 kts | 254° |
| 2026-05-01 13:02 | 38.87602 | 1.77582 | 18634 ft | 345 kts | 254° |
| 2026-05-01 13:07 | 38.71870 | 1.22941 | 7894 ft | 272 kts | 242° |
| 2026-05-01 13:07 | 38.70977 | 1.20802 | 7454 ft | 273 kts | 242° |
| 2026-05-01 13:07 | 38.70089 | 1.18676 | 7033 ft | 274 kts | 242° |
| 2026-05-01 13:08 | 38.69193 | 1.16532 | 6719 ft | 271 kts | 242° |
| 2026-05-01 13:08 | 38.68320 | 1.14442 | 6408 ft | 267 kts | 242° |
| 2026-05-01 13:08 | 38.67484 | 1.12338 | 6074 ft | 263 kts | 251° |
| 2026-05-01 13:08 | 38.67298 | 1.10078 | 5812 ft | 252 kts | 282° |
| 2026-05-01 13:09 | 38.67983 | 1.08083 | 5546 ft | 243 kts | 311° |
| 2026-05-01 13:09 | 38.69279 | 1.06794 | 5277 ft | 235 kts | 338° |
| 2026-05-01 13:09 | 38.70850 | 1.06412 | 5011 ft | 229 kts | 4° |
| 2026-05-01 13:09 | 38.72395 | 1.06870 | 4762 ft | 227 kts | 17° |
| 2026-05-01 13:10 | 38.73876 | 1.07510 | 4499 ft | 223 kts | 25° |
| 2026-05-01 13:10 | 38.75142 | 1.08624 | 4249 ft | 221 kts | 43° |
| 2026-05-01 13:10 | 38.76054 | 1.10195 | 4023 ft | 220 kts | 61° |
| 2026-05-01 13:10 | 38.76745 | 1.11906 | 3794 ft | 211 kts | 60° |
| 2026-05-01 13:11 | 38.77410 | 1.13535 | 3566 ft | 202 kts | 60° |
| 2026-05-01 13:11 | 38.78044 | 1.15082 | 3363 ft | 195 kts | 60° |
| 2026-05-01 13:11 | 38.78674 | 1.16607 | 3155 ft | 191 kts | 60° |
| 2026-05-01 13:11 | 38.79282 | 1.18068 | 3033 ft | 179 kts | 59° |
| 2026-05-01 13:12 | 38.79859 | 1.19447 | 2834 ft | 173 kts | 60° |
| 2026-05-01 13:12 | 38.80424 | 1.20797 | 2622 ft | 169 kts | 60° |
| 2026-05-01 13:12 | 38.80973 | 1.22114 | 2406 ft | 166 kts | 60° |
| 2026-05-01 13:12 | 38.81519 | 1.23426 | 2173 ft | 167 kts | 61° |
| 2026-05-01 13:13 | 38.82062 | 1.24728 | 1963 ft | 164 kts | 61° |
| 2026-05-01 13:13 | 38.82597 | 1.26015 | 1739 ft | 162 kts | 61° |
| 2026-05-01 13:13 | 38.83124 | 1.27284 | 1534 ft | 161 kts | 61° |
| 2026-05-01 13:13 | 38.83638 | 1.28520 | 1312 ft | 153 kts | 62° |
| 2026-05-01 13:14 | 38.84116 | 1.29670 | 1115 ft | 141 kts | 62° |
| 2026-05-01 13:14 | 38.84567 | 1.30756 | 936 ft | 136 kts | 62° |
| 2026-05-01 13:14 | 38.85010 | 1.31824 | 755 ft | 135 kts | 62° |
| 2026-05-01 13:14 | 38.85450 | 1.32884 | 592 ft | 134 kts | 63° |
| 2026-05-01 13:15 | 38.85892 | 1.33939 | 406 ft | 134 kts | 62° |
| 2026-05-01 13:15 | 38.86320 | 1.34980 | 216 ft | 133 kts | 63° |
| 2026-05-01 13:15 | 38.86751 | 1.36022 | 37 ft | 132 kts | 63° |
| 2026-05-01 13:15 | 38.87144 | 1.36968 | 10 ft | 99 kts | 62° |
| 2026-05-01 13:16 | 38.87390 | 1.37566 | 10 ft | 57 kts | 62° |
| 2026-05-01 13:16 | 38.87558 | 1.37973 | 12 ft | 46 kts | 62° |
| 2026-05-01 13:16 | 38.87654 | 1.38205 | 14 ft | 17 kts | 62° |
| 2026-05-01 13:17 | 38.87812 | 1.38135 | 10 ft | 7 kts | 244° |
| 2026-05-01 13:17 | 38.87789 | 1.38078 | 9 ft | 9 kts | 242° |
| 2026-05-01 13:18 | 38.87714 | 1.37895 | 10 ft | 11 kts | 242° |
| 2026-05-01 13:18 | 38.87677 | 1.37807 | 10 ft | 11 kts | 241° |
| 2026-05-01 13:18 | 38.87643 | 1.37727 | 10 ft | 10 kts | 241° |
| 2026-05-01 13:18 | 38.87611 | 1.37653 | 9 ft | 10 kts | 242° |
| 2026-05-01 13:19 | 38.87582 | 1.37577 | 10 ft | 7 kts | 258° |
| 2026-05-01 13:19 | 38.87617 | 1.37533 | 9 ft | 11 kts | 331° |
| 2026-05-01 13:19 | 38.87697 | 1.37429 | 8 ft | 8 kts | 258° |
| 2026-05-01 13:20 | 38.87674 | 1.37372 | 9 ft | 7 kts | 242° |
| 2026-05-01 13:20 | 38.87652 | 1.37318 | 8 ft | 5 kts | 245° |
| 2026-05-01 13:20 | 38.87655 | 1.37299 | 8 ft | 3 kts | 300° |
| 2026-05-01 13:21 | 38.87698 | 1.37265 | 8 ft | 1 kts | 331° |
| 2026-05-01 13:21 | 38.87700 | 1.37264 | 8 ft | 0 kts | 331° |